Bridgman, MI (49106)

10:53 PM EDT on August 30, 2016 (GMT -0400)
Village of Baroda | | Change Station
Active Advisory: Beach Hazard Statement Active Notice: Record Report

Elev 646 ft 41.96 °N, 86.48 °W | Updated 12 seconds ago

Clear
Clear
72.5 °F
Feels Like 72.5 °F
N
0.0
Wind Variable Wind from WNW
Gusts 0.0 mph

Today
High -- | Low -- °F
--% Chance of Precip.
Yesterday
High -- | Low -- °F
Precip. -- in
Pressure 30.04 in
Visibility 5.0 miles
Clouds Clear
Dew Point 71 °F
Humidity 96%
Rainfall 0.00 in
Snow Depth Not available.
7:10 AM 8:22 PM
Waning Crescent, 2% visible
METAR KBEH 310153Z AUTO 00000KT 5SM BR CLR 23/22 A3005 RMK AO2 SLP172 T02330217
Pressure 30.04 in
Visibility 5.0 miles
Clouds Clear
Dew Point 71 °F
Humidity 96%
Rainfall 0.00 in
Snow Depth Not available.
7:10 AM 8:22 PM
Waning Crescent, 2% visible
METAR KBEH 310153Z AUTO 00000KT 5SM BR CLR 23/22 A3005 RMK AO2 SLP172 T02330217

10-Day Weather Forecast

Almanac

Astronomy

Aug. 30, 2016 Rise Set
Actual Time
Civil Twilight
Nautical Twilight
Astronomical Twilight
Moon
Length of Visible Light
Length of Day
Tomorrow will be .
, % of the Moon is Illuminated

Today's Extremes

State Highs State Lows

Community

WunderPhotos

Upload Photos

1,936,002 photos uploaded!

WunderBlog® & News

Nearby

Air Quality

  Air Quality AQ Index Pollutant
Not available.

Snow Depth

Station Depth Elevation

Earthquake Activity

City Distance Mag. Time & Date
Minimum magnitude displayed is 2.5.

Coastal Water Temperatures

Place Temperature

Stations

Nearby Weather Stations

Station Location Temp. Windchill Dew Point Humidity Wind Precip. Elev Updated Type
                   

Watches & Warnings

Beach Hazard Statement
Issued: 8:49 PM CDT Aug. 30, 2016 – National Weather Service

... Beach hazards statement remains in effect from Wednesday
afternoon through Thursday evening...

* high wave action and dangerous swimming conditions expected...

* strong rip currents expected...

* strong structural currents expected...

* overview/potential impacts... north winds 15 to 20 mph. Wave
heights of 3 to 6 feet.

Precautionary/preparedness actions...

Life threatening waves and currents are expected at the beaches.
People visiting the beaches should stay out of the water.

Rip currents are powerful channels of water flowing quickly away
from the shore... which occur most often at low spots or breaks in
sandbars. Rip currents can sweep you into deeper water.

Structural currents form along piers where longshore currents and
wave action flow into the structure. Structural currents can
sweep you out into deeper water along the pier structure.